sensor_id;sensor_type;location;lat;lon;timestamp;temperature;humidity
11818;DHT22;5966;52.402;5.322;2022-12-18T00:00:21;-2.30;99.90
11818;DHT22;5966;52.402;5.322;2022-12-18T00:02:51;-2.30;99.90
11818;DHT22;5966;52.402;5.322;2022-12-18T00:05:27;-2.40;99.90
11818;DHT22;5966;52.402;5.322;2022-12-18T00:07:59;-2.40;99.90
11818;DHT22;5966;52.402;5.322;2022-12-18T00:10:28;-2.30;99.90
11818;DHT22;5966;52.402;5.322;2022-12-18T00:13:04;-2.30;99.90
11818;DHT22;5966;52.402;5.322;2022-12-18T00:15:36;-2.30;99.90
11818;DHT22;5966;52.402;5.322;2022-12-18T00:18:08;-2.30;99.90
11818;DHT22;5966;52.402;5.322;2022-12-18T00:20:50;-2.30;99.90
11818;DHT22;5966;52.402;5.322;2022-12-18T00:23:19;-2.40;99.90
11818;DHT22;5966;52.402;5.322;2022-12-18T00:25:54;-2.40;99.90
11818;DHT22;5966;52.402;5.322;2022-12-18T00:28:22;-2.40;99.90
11818;DHT22;5966;52.402;5.322;2022-12-18T00:30:50;-2.40;99.90
11818;DHT22;5966;52.402;5.322;2022-12-18T00:33:19;-2.40;99.90
11818;DHT22;5966;52.402;5.322;2022-12-18T00:35:48;-2.50;99.90
11818;DHT22;5966;52.402;5.322;2022-12-18T00:38:16;-2.50;99.90
11818;DHT22;5966;52.402;5.322;2022-12-18T00:40:44;-2.50;99.90
11818;DHT22;5966;52.402;5.322;2022-12-18T00:43:12;-2.60;99.90
11818;DHT22;5966;52.402;5.322;2022-12-18T00:45:39;-2.60;99.90
11818;DHT22;5966;52.402;5.322;2022-12-18T00:48:11;-2.60;99.90
11818;DHT22;5966;52.402;5.322;2022-12-18T00:50:39;-2.50;99.90
11818;DHT22;5966;52.402;5.322;2022-12-18T00:53:08;-2.60;99.90
11818;DHT22;5966;52.402;5.322;2022-12-18T00:55:37;-2.60;99.90
11818;DHT22;5966;52.402;5.322;2022-12-18T00:58:07;-2.60;99.90
11818;DHT22;5966;52.402;5.322;2022-12-18T01:03:04;-2.70;99.90
11818;DHT22;5966;52.402;5.322;2022-12-18T01:08:47;-2.70;99.90
11818;DHT22;5966;52.402;5.322;2022-12-18T01:11:20;-2.70;99.90
11818;DHT22;5966;52.402;5.322;2022-12-18T01:14:11;-2.70;99.90
11818;DHT22;5966;52.402;5.322;2022-12-18T01:16:42;-2.70;99.90
11818;DHT22;5966;52.402;5.322;2022-12-18T01:19:11;-2.70;99.90
11818;DHT22;5966;52.402;5.322;2022-12-18T01:21:40;-2.70;99.90
11818;DHT22;5966;52.402;5.322;2022-12-18T01:24:11;-2.70;99.90
11818;DHT22;5966;52.402;5.322;2022-12-18T01:26:39;-2.70;99.90
11818;DHT22;5966;52.402;5.322;2022-12-18T01:31:48;-2.70;99.90
11818;DHT22;5966;52.402;5.322;2022-12-18T01:34:21;-2.80;99.90
11818;DHT22;5966;52.402;5.322;2022-12-18T01:36:52;-2.80;99.90
11818;DHT22;5966;52.402;5.322;2022-12-18T01:39:21;-2.80;99.90
11818;DHT22;5966;52.402;5.322;2022-12-18T01:41:58;-2.90;99.90
11818;DHT22;5966;52.402;5.322;2022-12-18T01:44:57;-2.90;99.90
11818;DHT22;5966;52.402;5.322;2022-12-18T01:47:58;-2.90;99.90
11818;DHT22;5966;52.402;5.322;2022-12-18T01:50:30;-2.80;99.90
11818;DHT22;5966;52.402;5.322;2022-12-18T01:53:05;-2.80;99.90
11818;DHT22;5966;52.402;5.322;2022-12-18T01:55:53;-2.80;99.90
11818;DHT22;5966;52.402;5.322;2022-12-18T01:58:30;-2.80;99.90
11818;DHT22;5966;52.402;5.322;2022-12-18T02:01:02;-2.80;99.90
11818;DHT22;5966;52.402;5.322;2022-12-18T02:03:31;-2.80;99.90
11818;DHT22;5966;52.402;5.322;2022-12-18T02:06:03;-2.80;99.90
11818;DHT22;5966;52.402;5.322;2022-12-18T02:08:43;-2.80;99.90
11818;DHT22;5966;52.402;5.322;2022-12-18T02:11:39;-2.70;99.90
11818;DHT22;5966;52.402;5.322;2022-12-18T02:14:20;-2.80;99.90
11818;DHT22;5966;52.402;5.322;2022-12-18T02:16:54;-2.80;99.90
11818;DHT22;5966;52.402;5.322;2022-12-18T02:19:39;-2.80;99.90
11818;DHT22;5966;52.402;5.322;2022-12-18T02:22:26;-2.80;99.90
11818;DHT22;5966;52.402;5.322;2022-12-18T02:25:17;-2.80;99.90
11818;DHT22;5966;52.402;5.322;2022-12-18T02:27:52;-2.80;99.90
11818;DHT22;5966;52.402;5.322;2022-12-18T02:30:25;-2.80;99.90
11818;DHT22;5966;52.402;5.322;2022-12-18T02:32:55;-2.80;99.90
11818;DHT22;5966;52.402;5.322;2022-12-18T02:35:25;-2.80;99.90
11818;DHT22;5966;52.402;5.322;2022-12-18T02:37:59;-2.80;99.90
11818;DHT22;5966;52.402;5.322;2022-12-18T02:40:29;-2.90;99.90
11818;DHT22;5966;52.402;5.322;2022-12-18T02:43:07;-2.90;99.90
11818;DHT22;5966;52.402;5.322;2022-12-18T02:45:35;-2.90;99.90
11818;DHT22;5966;52.402;5.322;2022-12-18T02:48:03;-3.00;99.90
11818;DHT22;5966;52.402;5.322;2022-12-18T02:50:45;-3.00;99.90
11818;DHT22;5966;52.402;5.322;2022-12-18T02:53:31;-3.00;99.90
11818;DHT22;5966;52.402;5.322;2022-12-18T02:56:07;-3.00;99.90
11818;DHT22;5966;52.402;5.322;2022-12-18T02:58:46;-3.00;99.90
11818;DHT22;5966;52.402;5.322;2022-12-18T03:01:21;-3.00;99.90
11818;DHT22;5966;52.402;5.322;2022-12-18T03:03:59;-3.00;99.90
11818;DHT22;5966;52.402;5.322;2022-12-18T03:06:35;-3.00;99.90
11818;DHT22;5966;52.402;5.322;2022-12-18T03:09:08;-3.10;99.90
11818;DHT22;5966;52.402;5.322;2022-12-18T03:11:42;-3.10;99.90
11818;DHT22;5966;52.402;5.322;2022-12-18T03:14:39;-3.10;99.90
11818;DHT22;5966;52.402;5.322;2022-12-18T03:17:15;-3.10;99.90
11818;DHT22;5966;52.402;5.322;2022-12-18T03:19:52;-3.10;99.90
11818;DHT22;5966;52.402;5.322;2022-12-18T03:25:09;-3.10;99.90
11818;DHT22;5966;52.402;5.322;2022-12-18T03:27:44;-3.00;99.90
11818;DHT22;5966;52.402;5.322;2022-12-18T03:30:26;-3.00;99.90
11818;DHT22;5966;52.402;5.322;2022-12-18T03:33:02;-3.00;99.90
11818;DHT22;5966;52.402;5.322;2022-12-18T03:35:37;-3.10;99.90
11818;DHT22;5966;52.402;5.322;2022-12-18T03:38:09;-3.10;99.90
11818;DHT22;5966;52.402;5.322;2022-12-18T03:40:45;-3.10;99.90
11818;DHT22;5966;52.402;5.322;2022-12-18T03:43:20;-3.20;99.90
11818;DHT22;5966;52.402;5.322;2022-12-18T03:46:15;-3.20;99.90
11818;DHT22;5966;52.402;5.322;2022-12-18T03:48:48;-3.20;99.90
11818;DHT22;5966;52.402;5.322;2022-12-18T03:51:25;-3.20;99.90
11818;DHT22;5966;52.402;5.322;2022-12-18T03:53:58;-3.20;99.90
11818;DHT22;5966;52.402;5.322;2022-12-18T03:56:29;-3.20;99.90
11818;DHT22;5966;52.402;5.322;2022-12-18T03:58:59;-3.20;99.90
11818;DHT22;5966;52.402;5.322;2022-12-18T04:01:42;-3.20;99.90
11818;DHT22;5966;52.402;5.322;2022-12-18T04:04:14;-3.30;99.90
11818;DHT22;5966;52.402;5.322;2022-12-18T04:06:43;-3.20;99.90
11818;DHT22;5966;52.402;5.322;2022-12-18T04:09:13;-3.20;99.90
11818;DHT22;5966;52.402;5.322;2022-12-18T04:11:41;-3.20;99.90
11818;DHT22;5966;52.402;5.322;2022-12-18T04:14:12;-3.20;99.90
11818;DHT22;5966;52.402;5.322;2022-12-18T04:16:45;-3.30;99.90
11818;DHT22;5966;52.402;5.322;2022-12-18T04:19:13;-3.30;99.90
11818;DHT22;5966;52.402;5.322;2022-12-18T04:21:41;-3.30;99.90
11818;DHT22;5966;52.402;5.322;2022-12-18T04:24:09;-3.30;99.90
11818;DHT22;5966;52.402;5.322;2022-12-18T04:26:37;-3.30;99.90
11818;DHT22;5966;52.402;5.322;2022-12-18T04:29:05;-3.30;99.90
11818;DHT22;5966;52.402;5.322;2022-12-18T04:31:37;-3.40;99.90
11818;DHT22;5966;52.402;5.322;2022-12-18T04:34:52;-3.40;99.90
11818;DHT22;5966;52.402;5.322;2022-12-18T04:37:53;-3.40;99.90
11818;DHT22;5966;52.402;5.322;2022-12-18T04:40:22;-3.40;99.90
11818;DHT22;5966;52.402;5.322;2022-12-18T04:43:09;-3.40;99.90
11818;DHT22;5966;52.402;5.322;2022-12-18T04:45:52;-3.40;99.90
11818;DHT22;5966;52.402;5.322;2022-12-18T04:48:32;-3.40;99.90
11818;DHT22;5966;52.402;5.322;2022-12-18T04:51:55;-3.40;99.90
11818;DHT22;5966;52.402;5.322;2022-12-18T04:54:25;-3.40;99.90
11818;DHT22;5966;52.402;5.322;2022-12-18T04:57:10;-3.40;99.90
11818;DHT22;5966;52.402;5.322;2022-12-18T04:59:38;-3.40;99.90
11818;DHT22;5966;52.402;5.322;2022-12-18T05:02:06;-3.40;99.90
11818;DHT22;5966;52.402;5.322;2022-12-18T05:05:03;-3.40;99.90
11818;DHT22;5966;52.402;5.322;2022-12-18T05:07:34;-3.50;99.90
11818;DHT22;5966;52.402;5.322;2022-12-18T05:10:03;-3.50;99.90
11818;DHT22;5966;52.402;5.322;2022-12-18T05:12:32;-3.50;99.90
11818;DHT22;5966;52.402;5.322;2022-12-18T05:15:22;-3.60;99.90
11818;DHT22;5966;52.402;5.322;2022-12-18T05:18:13;-3.60;99.90
11818;DHT22;5966;52.402;5.322;2022-12-18T05:20:45;-3.60;99.90
11818;DHT22;5966;52.402;5.322;2022-12-18T05:23:34;-3.60;99.90
11818;DHT22;5966;52.402;5.322;2022-12-18T05:26:05;-3.60;99.90
11818;DHT22;5966;52.402;5.322;2022-12-18T05:28:35;-3.60;99.90
11818;DHT22;5966;52.402;5.322;2022-12-18T05:31:04;-3.70;99.90
11818;DHT22;5966;52.402;5.322;2022-12-18T05:33:34;-3.70;99.90
11818;DHT22;5966;52.402;5.322;2022-12-18T05:36:07;-3.70;99.90
11818;DHT22;5966;52.402;5.322;2022-12-18T05:39:07;-3.80;99.90
11818;DHT22;5966;52.402;5.322;2022-12-18T05:41:36;-3.80;99.90
11818;DHT22;5966;52.402;5.322;2022-12-18T05:44:04;-3.80;99.90
11818;DHT22;5966;52.402;5.322;2022-12-18T05:46:34;-3.90;99.90
11818;DHT22;5966;52.402;5.322;2022-12-18T05:49:06;-3.90;99.90
11818;DHT22;5966;52.402;5.322;2022-12-18T05:51:37;-4.00;99.90
11818;DHT22;5966;52.402;5.322;2022-12-18T05:54:08;-4.00;99.90
11818;DHT22;5966;52.402;5.322;2022-12-18T05:56:37;-4.00;99.90
11818;DHT22;5966;52.402;5.322;2022-12-18T05:59:18;-4.00;99.90
11818;DHT22;5966;52.402;5.322;2022-12-18T06:01:50;-4.00;99.90
11818;DHT22;5966;52.402;5.322;2022-12-18T06:04:27;-4.00;99.90
11818;DHT22;5966;52.402;5.322;2022-12-18T06:07:03;-4.00;99.90
11818;DHT22;5966;52.402;5.322;2022-12-18T06:09:33;-3.90;99.90
11818;DHT22;5966;52.402;5.322;2022-12-18T06:12:01;-3.90;99.90
11818;DHT22;5966;52.402;5.322;2022-12-18T06:14:30;-3.90;99.90
11818;DHT22;5966;52.402;5.322;2022-12-18T06:16:58;-3.90;99.90
11818;DHT22;5966;52.402;5.322;2022-12-18T06:19:26;-3.90;99.90
11818;DHT22;5966;52.402;5.322;2022-12-18T06:21:54;-3.90;99.90
11818;DHT22;5966;52.402;5.322;2022-12-18T06:24:26;-3.90;99.90
11818;DHT22;5966;52.402;5.322;2022-12-18T06:26:56;-3.90;99.90
11818;DHT22;5966;52.402;5.322;2022-12-18T06:29:24;-3.90;99.90
11818;DHT22;5966;52.402;5.322;2022-12-18T06:31:52;-3.90;99.90
11818;DHT22;5966;52.402;5.322;2022-12-18T06:34:22;-3.90;99.90
11818;DHT22;5966;52.402;5.322;2022-12-18T06:36:50;-3.90;99.90
11818;DHT22;5966;52.402;5.322;2022-12-18T06:39:18;-3.90;99.90
11818;DHT22;5966;52.402;5.322;2022-12-18T06:41:46;-3.90;99.90
11818;DHT22;5966;52.402;5.322;2022-12-18T06:44:17;-3.90;99.90
11818;DHT22;5966;52.402;5.322;2022-12-18T06:46:46;-3.90;99.90
11818;DHT22;5966;52.402;5.322;2022-12-18T06:49:16;-3.90;99.90
11818;DHT22;5966;52.402;5.322;2022-12-18T06:51:45;-3.90;99.90
11818;DHT22;5966;52.402;5.322;2022-12-18T06:54:14;-3.90;99.90
11818;DHT22;5966;52.402;5.322;2022-12-18T06:56:42;-3.90;99.90
11818;DHT22;5966;52.402;5.322;2022-12-18T06:59:12;-3.90;99.90
11818;DHT22;5966;52.402;5.322;2022-12-18T07:01:42;-4.00;99.90
11818;DHT22;5966;52.402;5.322;2022-12-18T07:04:11;-4.00;99.90
11818;DHT22;5966;52.402;5.322;2022-12-18T07:06:39;-4.10;99.90
11818;DHT22;5966;52.402;5.322;2022-12-18T07:09:07;-4.20;99.90
11818;DHT22;5966;52.402;5.322;2022-12-18T07:11:35;-4.20;99.90
11818;DHT22;5966;52.402;5.322;2022-12-18T07:14:03;-4.20;99.90
11818;DHT22;5966;52.402;5.322;2022-12-18T07:16:31;-4.20;99.90
11818;DHT22;5966;52.402;5.322;2022-12-18T07:19:03;-4.30;99.90
11818;DHT22;5966;52.402;5.322;2022-12-18T07:21:37;-4.30;99.90
11818;DHT22;5966;52.402;5.322;2022-12-18T07:24:12;-4.40;99.90
11818;DHT22;5966;52.402;5.322;2022-12-18T07:29:50;-4.40;99.90
11818;DHT22;5966;52.402;5.322;2022-12-18T07:32:18;-4.40;99.90
11818;DHT22;5966;52.402;5.322;2022-12-18T07:34:47;-4.50;99.90
11818;DHT22;5966;52.402;5.322;2022-12-18T07:37:16;-4.40;99.90
11818;DHT22;5966;52.402;5.322;2022-12-18T07:39:44;-4.40;99.90
11818;DHT22;5966;52.402;5.322;2022-12-18T07:42:14;-4.50;99.90
11818;DHT22;5966;52.402;5.322;2022-12-18T07:45:02;-4.50;99.90
11818;DHT22;5966;52.402;5.322;2022-12-18T07:50:57;-4.40;99.90
11818;DHT22;5966;52.402;5.322;2022-12-18T07:53:41;-4.40;99.90
11818;DHT22;5966;52.402;5.322;2022-12-18T07:56:21;-4.40;99.90
11818;DHT22;5966;52.402;5.322;2022-12-18T07:59:19;-4.40;99.90
11818;DHT22;5966;52.402;5.322;2022-12-18T08:01:54;-4.40;99.90
11818;DHT22;5966;52.402;5.322;2022-12-18T08:04:40;-4.40;99.90
11818;DHT22;5966;52.402;5.322;2022-12-18T08:07:17;-4.40;99.90
11818;DHT22;5966;52.402;5.322;2022-12-18T08:09:59;-4.30;99.90
11818;DHT22;5966;52.402;5.322;2022-12-18T08:12:52;-4.30;99.90
11818;DHT22;5966;52.402;5.322;2022-12-18T08:15:58;-4.20;99.90
11818;DHT22;5966;52.402;5.322;2022-12-18T08:18:36;-4.20;99.90
11818;DHT22;5966;52.402;5.322;2022-12-18T08:21:10;-4.20;99.90
11818;DHT22;5966;52.402;5.322;2022-12-18T08:23:52;-4.10;99.90
11818;DHT22;5966;52.402;5.322;2022-12-18T08:26:55;-4.10;99.90
11818;DHT22;5966;52.402;5.322;2022-12-18T08:30:11;-4.00;99.90
11818;DHT22;5966;52.402;5.322;2022-12-18T08:32:47;-3.90;99.90
11818;DHT22;5966;52.402;5.322;2022-12-18T08:35:35;-3.80;99.90
11818;DHT22;5966;52.402;5.322;2022-12-18T08:38:11;-3.70;99.90
11818;DHT22;5966;52.402;5.322;2022-12-18T08:40:42;-3.60;99.90
11818;DHT22;5966;52.402;5.322;2022-12-18T08:43:10;-3.60;99.90
11818;DHT22;5966;52.402;5.322;2022-12-18T08:45:56;-3.50;99.90
11818;DHT22;5966;52.402;5.322;2022-12-18T08:48:25;-3.50;99.90
11818;DHT22;5966;52.402;5.322;2022-12-18T08:51:08;-3.50;99.90
11818;DHT22;5966;52.402;5.322;2022-12-18T08:53:45;-3.50;99.90
11818;DHT22;5966;52.402;5.322;2022-12-18T08:56:16;-3.50;99.90
11818;DHT22;5966;52.402;5.322;2022-12-18T08:58:57;-3.50;99.90
11818;DHT22;5966;52.402;5.322;2022-12-18T09:01:40;-3.40;99.90
11818;DHT22;5966;52.402;5.322;2022-12-18T09:04:27;-3.40;99.90
11818;DHT22;5966;52.402;5.322;2022-12-18T09:07:26;-3.40;99.90
11818;DHT22;5966;52.402;5.322;2022-12-18T09:10:41;-3.30;99.90
11818;DHT22;5966;52.402;5.322;2022-12-18T09:13:12;-3.20;99.90
11818;DHT22;5966;52.402;5.322;2022-12-18T09:15:58;-3.20;99.90
11818;DHT22;5966;52.402;5.322;2022-12-18T09:18:47;-3.10;99.90
11818;DHT22;5966;52.402;5.322;2022-12-18T09:21:20;-3.00;99.90
11818;DHT22;5966;52.402;5.322;2022-12-18T09:23:55;-3.00;99.90
11818;DHT22;5966;52.402;5.322;2022-12-18T09:26:27;-3.00;99.90
11818;DHT22;5966;52.402;5.322;2022-12-18T09:29:00;-3.00;99.90
11818;DHT22;5966;52.402;5.322;2022-12-18T09:31:29;-2.90;99.90
11818;DHT22;5966;52.402;5.322;2022-12-18T09:33:57;-2.90;99.90
11818;DHT22;5966;52.402;5.322;2022-12-18T09:36:30;-2.80;99.90
11818;DHT22;5966;52.402;5.322;2022-12-18T09:38:58;-2.80;99.90
11818;DHT22;5966;52.402;5.322;2022-12-18T09:41:44;-2.80;99.90
11818;DHT22;5966;52.402;5.322;2022-12-18T09:44:20;-2.80;99.90
11818;DHT22;5966;52.402;5.322;2022-12-18T09:46:58;-2.70;99.90
11818;DHT22;5966;52.402;5.322;2022-12-18T09:49:31;-2.70;99.90
11818;DHT22;5966;52.402;5.322;2022-12-18T09:52:11;-2.60;99.90
11818;DHT22;5966;52.402;5.322;2022-12-18T09:54:46;-2.60;99.90
11818;DHT22;5966;52.402;5.322;2022-12-18T09:57:18;-2.50;99.90
11818;DHT22;5966;52.402;5.322;2022-12-18T09:59:54;-2.50;99.90
11818;DHT22;5966;52.402;5.322;2022-12-18T10:02:35;-2.50;99.90
11818;DHT22;5966;52.402;5.322;2022-12-18T10:05:12;-2.40;99.90
11818;DHT22;5966;52.402;5.322;2022-12-18T10:07:55;-2.40;99.90
11818;DHT22;5966;52.402;5.322;2022-12-18T10:10:32;-2.30;99.90
11818;DHT22;5966;52.402;5.322;2022-12-18T10:13:07;-2.20;99.90
11818;DHT22;5966;52.402;5.322;2022-12-18T10:15:49;-2.20;99.90
11818;DHT22;5966;52.402;5.322;2022-12-18T10:18:28;-2.10;99.90
11818;DHT22;5966;52.402;5.322;2022-12-18T10:21:07;-2.10;99.90
11818;DHT22;5966;52.402;5.322;2022-12-18T10:23:46;-2.10;99.90
11818;DHT22;5966;52.402;5.322;2022-12-18T10:26:17;-2.10;99.90
11818;DHT22;5966;52.402;5.322;2022-12-18T10:28:47;-2.00;99.90
11818;DHT22;5966;52.402;5.322;2022-12-18T10:31:31;-2.00;99.90
11818;DHT22;5966;52.402;5.322;2022-12-18T10:34:09;-2.00;99.90
11818;DHT22;5966;52.402;5.322;2022-12-18T10:36:37;-2.00;99.90
11818;DHT22;5966;52.402;5.322;2022-12-18T10:39:17;-1.90;99.90
11818;DHT22;5966;52.402;5.322;2022-12-18T10:41:46;-1.90;99.90
11818;DHT22;5966;52.402;5.322;2022-12-18T10:44:19;-1.90;99.90
11818;DHT22;5966;52.402;5.322;2022-12-18T10:47:03;-1.80;99.90
11818;DHT22;5966;52.402;5.322;2022-12-18T10:49:40;-1.90;99.90
11818;DHT22;5966;52.402;5.322;2022-12-18T10:52:15;-1.90;99.90
11818;DHT22;5966;52.402;5.322;2022-12-18T10:54:50;-1.80;99.90
11818;DHT22;5966;52.402;5.322;2022-12-18T10:57:39;-1.80;99.90
11818;DHT22;5966;52.402;5.322;2022-12-18T11:00:26;-1.80;99.90
11818;DHT22;5966;52.402;5.322;2022-12-18T11:03:31;-1.70;99.90
11818;DHT22;5966;52.402;5.322;2022-12-18T11:06:11;-1.70;99.90
11818;DHT22;5966;52.402;5.322;2022-12-18T11:08:42;-1.70;99.90
11818;DHT22;5966;52.402;5.322;2022-12-18T11:11:20;-1.70;99.90
11818;DHT22;5966;52.402;5.322;2022-12-18T11:13:59;-1.60;99.90
11818;DHT22;5966;52.402;5.322;2022-12-18T11:16:36;-1.60;99.90
11818;DHT22;5966;52.402;5.322;2022-12-18T11:19:34;-1.60;99.90
11818;DHT22;5966;52.402;5.322;2022-12-18T11:22:20;-1.60;99.90
11818;DHT22;5966;52.402;5.322;2022-12-18T11:24:55;-1.60;99.90
11818;DHT22;5966;52.402;5.322;2022-12-18T11:27:48;-1.60;99.90
11818;DHT22;5966;52.402;5.322;2022-12-18T11:30:43;-1.50;99.90
11818;DHT22;5966;52.402;5.322;2022-12-18T11:33:16;-1.50;99.90
11818;DHT22;5966;52.402;5.322;2022-12-18T11:35:58;-1.50;99.90
11818;DHT22;5966;52.402;5.322;2022-12-18T11:38:37;-1.50;99.90
11818;DHT22;5966;52.402;5.322;2022-12-18T11:41:18;-1.40;99.90
11818;DHT22;5966;52.402;5.322;2022-12-18T11:43:54;-1.40;99.90
11818;DHT22;5966;52.402;5.322;2022-12-18T11:46:34;-1.40;99.90
11818;DHT22;5966;52.402;5.322;2022-12-18T11:49:15;-1.30;99.90
11818;DHT22;5966;52.402;5.322;2022-12-18T11:51:55;-1.30;99.90
11818;DHT22;5966;52.402;5.322;2022-12-18T11:54:37;-1.20;99.90
11818;DHT22;5966;52.402;5.322;2022-12-18T11:57:09;-1.20;99.90
11818;DHT22;5966;52.402;5.322;2022-12-18T11:59:51;-1.20;99.90
11818;DHT22;5966;52.402;5.322;2022-12-18T12:02:37;-1.10;99.90
11818;DHT22;5966;52.402;5.322;2022-12-18T12:05:29;-1.10;99.90
11818;DHT22;5966;52.402;5.322;2022-12-18T12:11:46;-1.10;99.90
11818;DHT22;5966;52.402;5.322;2022-12-18T12:14:45;-1.10;99.90
11818;DHT22;5966;52.402;5.322;2022-12-18T12:17:26;-1.10;99.90
11818;DHT22;5966;52.402;5.322;2022-12-18T12:20:20;-1.00;99.90
11818;DHT22;5966;52.402;5.322;2022-12-18T12:23:26;-1.00;99.90
11818;DHT22;5966;52.402;5.322;2022-12-18T12:29:53;-1.00;99.90
11818;DHT22;5966;52.402;5.322;2022-12-18T12:36:06;-0.90;99.90
11818;DHT22;5966;52.402;5.322;2022-12-18T12:38:42;-0.90;99.90
11818;DHT22;5966;52.402;5.322;2022-12-18T12:41:34;-0.90;99.90
11818;DHT22;5966;52.402;5.322;2022-12-18T12:48:06;-0.90;99.90
11818;DHT22;5966;52.402;5.322;2022-12-18T12:50:54;-0.80;99.90
11818;DHT22;5966;52.402;5.322;2022-12-18T12:53:28;-0.80;99.90
11818;DHT22;5966;52.402;5.322;2022-12-18T12:56:35;-0.80;99.90
11818;DHT22;5966;52.402;5.322;2022-12-18T12:59:15;-0.80;99.90
11818;DHT22;5966;52.402;5.322;2022-12-18T13:01:54;-0.80;99.90
11818;DHT22;5966;52.402;5.322;2022-12-18T13:07:45;-0.70;99.90
11818;DHT22;5966;52.402;5.322;2022-12-18T13:10:41;-0.70;99.90
11818;DHT22;5966;52.402;5.322;2022-12-18T13:13:15;-0.70;99.90
11818;DHT22;5966;52.402;5.322;2022-12-18T13:16:04;-0.70;99.90
11818;DHT22;5966;52.402;5.322;2022-12-18T13:19:25;-0.70;99.90
11818;DHT22;5966;52.402;5.322;2022-12-18T13:22:21;-0.60;99.90
11818;DHT22;5966;52.402;5.322;2022-12-18T13:28:52;-0.60;99.90
11818;DHT22;5966;52.402;5.322;2022-12-18T13:31:57;-0.60;99.90
11818;DHT22;5966;52.402;5.322;2022-12-18T13:34:29;-0.60;99.90
11818;DHT22;5966;52.402;5.322;2022-12-18T13:37:41;-0.60;99.90
11818;DHT22;5966;52.402;5.322;2022-12-18T13:43:46;-0.60;99.90
11818;DHT22;5966;52.402;5.322;2022-12-18T13:46:29;-0.60;99.90
11818;DHT22;5966;52.402;5.322;2022-12-18T13:49:39;-0.50;99.90
11818;DHT22;5966;52.402;5.322;2022-12-18T13:52:36;-0.50;99.90
11818;DHT22;5966;52.402;5.322;2022-12-18T13:55:17;-0.50;99.90
11818;DHT22;5966;52.402;5.322;2022-12-18T13:58:04;-0.50;99.90
11818;DHT22;5966;52.402;5.322;2022-12-18T14:00:43;-0.50;99.90
11818;DHT22;5966;52.402;5.322;2022-12-18T14:03:29;-0.50;99.90
11818;DHT22;5966;52.402;5.322;2022-12-18T14:06:29;-0.50;99.90
11818;DHT22;5966;52.402;5.322;2022-12-18T14:09:25;-0.40;99.90
11818;DHT22;5966;52.402;5.322;2022-12-18T14:12:18;-0.40;99.90
11818;DHT22;5966;52.402;5.322;2022-12-18T14:15:20;-0.40;99.90
11818;DHT22;5966;52.402;5.322;2022-12-18T14:18:00;-0.40;99.90
11818;DHT22;5966;52.402;5.322;2022-12-18T14:20:37;-0.40;99.90
11818;DHT22;5966;52.402;5.322;2022-12-18T14:23:35;-0.30;99.90
11818;DHT22;5966;52.402;5.322;2022-12-18T14:26:27;-0.40;99.90
11818;DHT22;5966;52.402;5.322;2022-12-18T14:29:22;-0.40;99.90
11818;DHT22;5966;52.402;5.322;2022-12-18T14:32:22;-0.30;99.90
11818;DHT22;5966;52.402;5.322;2022-12-18T14:38:57;-0.30;99.90
11818;DHT22;5966;52.402;5.322;2022-12-18T14:41:33;-0.30;99.90
11818;DHT22;5966;52.402;5.322;2022-12-18T14:44:06;-0.30;99.90
11818;DHT22;5966;52.402;5.322;2022-12-18T14:46:36;-0.20;99.90
11818;DHT22;5966;52.402;5.322;2022-12-18T14:49:18;-0.30;99.90
11818;DHT22;5966;52.402;5.322;2022-12-18T14:51:48;-0.20;99.90
11818;DHT22;5966;52.402;5.322;2022-12-18T14:54:28;-0.20;99.90
11818;DHT22;5966;52.402;5.322;2022-12-18T14:57:05;-0.20;99.90
11818;DHT22;5966;52.402;5.322;2022-12-18T14:59:38;-0.20;99.90
11818;DHT22;5966;52.402;5.322;2022-12-18T15:02:17;-0.20;99.90
11818;DHT22;5966;52.402;5.322;2022-12-18T15:04:47;-0.20;99.90
11818;DHT22;5966;52.402;5.322;2022-12-18T15:07:17;-0.20;99.90
11818;DHT22;5966;52.402;5.322;2022-12-18T15:12:44;-0.20;99.90
11818;DHT22;5966;52.402;5.322;2022-12-18T15:18:21;-0.20;99.90
11818;DHT22;5966;52.402;5.322;2022-12-18T15:20:53;-0.20;99.90
11818;DHT22;5966;52.402;5.322;2022-12-18T15:23:23;-0.20;99.90
11818;DHT22;5966;52.402;5.322;2022-12-18T15:25:55;-0.20;99.90
11818;DHT22;5966;52.402;5.322;2022-12-18T15:28:27;-0.20;99.90
11818;DHT22;5966;52.402;5.322;2022-12-18T15:31:02;-0.20;99.90
11818;DHT22;5966;52.402;5.322;2022-12-18T15:33:33;-0.20;99.90
11818;DHT22;5966;52.402;5.322;2022-12-18T15:36:03;-0.10;99.90
11818;DHT22;5966;52.402;5.322;2022-12-18T15:38:31;-0.20;99.90
11818;DHT22;5966;52.402;5.322;2022-12-18T15:40:59;-0.10;99.90
11818;DHT22;5966;52.402;5.322;2022-12-18T15:43:30;-0.10;99.90
11818;DHT22;5966;52.402;5.322;2022-12-18T15:46:01;-0.10;99.90
11818;DHT22;5966;52.402;5.322;2022-12-18T15:48:29;-0.10;99.90
11818;DHT22;5966;52.402;5.322;2022-12-18T15:50:58;-0.10;99.90
11818;DHT22;5966;52.402;5.322;2022-12-18T15:53:29;-0.10;99.90
11818;DHT22;5966;52.402;5.322;2022-12-18T15:55:58;-0.10;99.90
11818;DHT22;5966;52.402;5.322;2022-12-18T15:58:45;-0.10;99.90
11818;DHT22;5966;52.402;5.322;2022-12-18T16:01:13;-0.10;99.90
11818;DHT22;5966;52.402;5.322;2022-12-18T16:03:43;-0.10;99.90
11818;DHT22;5966;52.402;5.322;2022-12-18T16:06:12;-0.10;99.90
11818;DHT22;5966;52.402;5.322;2022-12-18T16:08:40;-0.10;99.90
11818;DHT22;5966;52.402;5.322;2022-12-18T16:11:32;-0.10;99.90
11818;DHT22;5966;52.402;5.322;2022-12-18T16:14:15;-0.10;99.90
11818;DHT22;5966;52.402;5.322;2022-12-18T16:16:45;-0.10;99.90
11818;DHT22;5966;52.402;5.322;2022-12-18T16:19:13;-0.10;99.90
11818;DHT22;5966;52.402;5.322;2022-12-18T16:21:41;-0.10;99.90
11818;DHT22;5966;52.402;5.322;2022-12-18T16:24:13;-0.10;99.90
11818;DHT22;5966;52.402;5.322;2022-12-18T16:26:42;-0.10;99.90
11818;DHT22;5966;52.402;5.322;2022-12-18T16:29:13;-0.10;99.90
11818;DHT22;5966;52.402;5.322;2022-12-18T16:31:41;-0.10;99.90
11818;DHT22;5966;52.402;5.322;2022-12-18T16:34:10;-0.10;99.90
11818;DHT22;5966;52.402;5.322;2022-12-18T16:36:38;-0.10;99.90
11818;DHT22;5966;52.402;5.322;2022-12-18T16:39:08;-0.10;99.90
11818;DHT22;5966;52.402;5.322;2022-12-18T16:41:36;-0.10;99.90
11818;DHT22;5966;52.402;5.322;2022-12-18T16:44:05;-0.10;99.90
11818;DHT22;5966;52.402;5.322;2022-12-18T16:46:34;0.00;99.90
11818;DHT22;5966;52.402;5.322;2022-12-18T16:49:03;-0.10;99.90
11818;DHT22;5966;52.402;5.322;2022-12-18T16:51:31;0.00;99.90
11818;DHT22;5966;52.402;5.322;2022-12-18T16:53:59;0.00;99.90
11818;DHT22;5966;52.402;5.322;2022-12-18T16:56:34;0.00;99.90
11818;DHT22;5966;52.402;5.322;2022-12-18T16:59:03;0.00;99.90
11818;DHT22;5966;52.402;5.322;2022-12-18T17:01:34;0.00;99.90
11818;DHT22;5966;52.402;5.322;2022-12-18T17:04:05;0.10;99.90
11818;DHT22;5966;52.402;5.322;2022-12-18T17:06:35;0.00;99.90
11818;DHT22;5966;52.402;5.322;2022-12-18T17:09:09;0.00;99.90
11818;DHT22;5966;52.402;5.322;2022-12-18T17:11:38;0.10;99.90
11818;DHT22;5966;52.402;5.322;2022-12-18T17:14:06;0.10;99.90
11818;DHT22;5966;52.402;5.322;2022-12-18T17:16:35;0.10;99.90
11818;DHT22;5966;52.402;5.322;2022-12-18T17:19:05;0.10;99.90
11818;DHT22;5966;52.402;5.322;2022-12-18T17:21:42;0.10;99.90
11818;DHT22;5966;52.402;5.322;2022-12-18T17:24:10;0.10;99.90
11818;DHT22;5966;52.402;5.322;2022-12-18T17:26:38;0.10;99.90
11818;DHT22;5966;52.402;5.322;2022-12-18T17:29:06;0.10;99.90
11818;DHT22;5966;52.402;5.322;2022-12-18T17:31:36;0.10;99.90
11818;DHT22;5966;52.402;5.322;2022-12-18T17:34:06;0.10;99.90
11818;DHT22;5966;52.402;5.322;2022-12-18T17:36:35;0.20;99.90
11818;DHT22;5966;52.402;5.322;2022-12-18T17:39:07;0.20;99.90
11818;DHT22;5966;52.402;5.322;2022-12-18T17:41:35;0.20;99.90